Time;durP1;ratioP1;P1;durP2;ratioP2;P2;SDS_P1;SDS_P2;PMS_P1;PMS_P2;Temp;Humidity;BMP_temperature;BMP_pressure;BME280_temperature;BME280_humidity;BME280_pressure;Samples;Min_cycle;Max_cycle;Signal;HPM_P1;HPM_P2
2023/03/17 00:00:36;;;;;;;5.47;5.10;;;8.60;43.30;;;;;;21324;6651;66873;-75
2023/03/17 00:03:02;;;;;;;5.18;4.80;;;8.10;44.30;;;;;;21322;6651;67590;-74
2023/03/17 00:05:32;;;;;;;5.50;5.10;;;8.10;44.30;;;;;;21331;6651;67993;-75
2023/03/17 00:07:56;;;;;;;5.23;4.87;;;7.90;44.70;;;;;;21374;6633;66692;-74
2023/03/17 00:10:22;;;;;;;5.90;5.50;;;7.70;44.90;;;;;;21117;6651;301499;-74
2023/03/17 00:12:52;;;;;;;5.67;5.37;;;7.90;44.70;;;;;;21106;6651;274216;-75
2023/03/17 00:15:16;;;;;;;5.95;5.55;;;8.30;44.40;;;;;;21163;6638;272089;-78
2023/03/17 00:17:42;;;;;;;5.75;5.35;;;8.70;43.60;;;;;;21401;6634;66886;-75
2023/03/17 00:20:07;;;;;;;5.95;5.55;;;8.50;43.60;;;;;;21120;6651;330606;-77
2023/03/17 00:22:33;;;;;;;5.90;5.50;;;8.60;43.30;;;;;;21097;6651;272378;-77
2023/03/17 00:24:59;;;;;;;6.07;5.68;;;8.80;43.40;;;;;;21111;6651;273418;-74
2023/03/17 00:27:25;;;;;;;5.55;5.15;;;8.80;43.40;;;;;;21338;6651;66868;-74
2023/03/17 00:29:50;;;;;;;4.87;4.47;;;8.80;43.10;;;;;;21353;6642;66243;-75
2023/03/17 00:32:16;;;;;;;5.40;5.00;;;8.50;43.70;;;;;;21372;6636;66270;-74
2023/03/17 00:34:42;;;;;;;5.00;4.70;;;8.20;44.50;;;;;;21324;6651;70801;-74
2023/03/17 00:37:08;;;;;;;5.97;5.50;;;7.90;44.70;;;;;;21109;6651;311175;-75
2023/03/17 00:39:33;;;;;;;5.83;5.50;;;8.10;44.30;;;;;;21085;6651;272800;-75
2023/03/17 00:41:58;;;;;;;4.93;4.68;;;8.50;43.60;;;;;;21292;6651;68462;-74
2023/03/17 00:44:24;;;;;;;4.95;4.60;;;8.50;43.70;;;;;;21331;6653;71196;-75
2023/03/17 00:46:50;;;;;;;4.80;4.50;;;8.30;44.30;;;;;;21392;6634;66174;-75
2023/03/17 00:49:15;;;;;;;4.97;4.67;;;8.00;44.70;;;;;;21329;6651;67969;-75
2023/03/17 00:51:41;;;;;;;6.00;5.50;;;7.90;45.20;;;;;;21100;6651;330229;-74
2023/03/17 00:54:09;;;;;;;5.80;5.40;;;8.50;45.10;;;;;;21154;6638;271926;-76
2023/03/17 00:56:33;;;;;;;5.80;5.33;;;8.50;44.80;;;;;;21393;6634;66356;-75
2023/03/17 00:58:59;;;;;;;5.07;4.57;;;8.50;44.70;;;;;;21342;6651;69493;-75
2023/03/17 01:01:27;;;;;;;5.13;4.80;;;8.40;44.60;;;;;;21094;6651;331031;-76
2023/03/17 01:03:52;;;;;;;5.10;4.70;;;8.40;44.60;;;;;;21373;6642;66630;-74
2023/03/17 01:06:19;;;;;;;5.10;4.80;;;8.40;44.70;;;;;;21169;6636;273379;-76
2023/03/17 01:08:43;;;;;;;4.57;4.27;;;8.50;44.00;;;;;;21371;6638;66245;-74
2023/03/17 01:11:13;;;;;;;4.97;4.68;;;8.70;43.80;;;;;;21157;6634;318544;-73
2023/03/17 01:13:39;;;;;;;5.60;5.17;;;8.70;43.80;;;;;;21104;6651;303277;-74
2023/03/17 01:16:04;;;;;;;4.82;4.43;;;9.00;43.30;;;;;;21324;6651;66605;-74
2023/03/17 01:18:30;;;;;;;5.47;5.07;;;8.90;43.50;;;;;;21107;6651;301410;-75
2023/03/17 01:20:55;;;;;;;5.30;4.90;;;8.90;43.40;;;;;;21168;6633;272677;-76
2023/03/17 01:23:21;;;;;;;4.63;4.33;;;9.20;42.80;;;;;;21325;6651;71613;-77
2023/03/17 01:25:47;;;;;;;4.60;4.30;;;9.00;43.10;;;;;;21125;6651;305471;-75
2023/03/17 01:28:12;;;;;;;4.93;4.60;;;9.00;43.20;;;;;;21367;6642;66472;-74
2023/03/17 01:30:38;;;;;;;5.03;4.63;;;8.90;43.70;;;;;;21159;6636;300499;-74
2023/03/17 01:33:03;;;;;;;4.30;4.00;;;9.00;43.30;;;;;;21327;6651;66605;-74
2023/03/17 01:35:30;;;;;;;4.95;4.55;;;8.90;43.50;;;;;;21112;6653;289031;-74
2023/03/17 01:37:56;;;;;;;4.37;4.07;;;9.00;42.60;;;;;;21389;6634;67002;-74
2023/03/17 01:40:21;;;;;;;4.40;4.07;;;9.00;43.00;;;;;;21335;6651;67133;-73
2023/03/17 01:42:48;;;;;;;4.80;4.40;;;8.70;43.40;;;;;;21098;6651;292971;-74
2023/03/17 01:45:53;;;;;;;4.50;4.20;;;8.80;43.10;;;;;;21293;6651;71738;-76
2023/03/17 01:48:19;;;;;;;3.97;3.77;;;8.70;43.30;;;;;;21358;6642;66693;-75
2023/03/17 01:50:44;;;;;;;3.60;3.30;;;8.40;43.80;;;;;;21383;6636;66714;-75
2023/03/17 01:53:10;;;;;;;4.60;4.30;;;8.20;44.20;;;;;;21316;6651;67271;-75
2023/03/17 01:55:35;;;;;;;5.45;5.05;;;8.10;44.80;;;;;;21118;6651;330997;-75
2023/03/17 01:58:02;;;;;;;4.85;4.45;;;8.30;45.00;;;;;;21298;6653;67577;-74
2023/03/17 02:00:28;;;;;;;4.67;4.20;;;8.20;44.90;;;;;;21387;6634;68222;-74
2023/03/17 02:02:54;;;;;;;4.35;4.05;;;8.10;45.30;;;;;;21378;6634;66642;-74
2023/03/17 02:05:18;;;;;;;4.50;4.20;;;7.90;45.60;;;;;;21320;6651;66392;-74
2023/03/17 02:07:44;;;;;;;4.87;4.40;;;7.80;45.90;;;;;;21324;6651;66767;-74
2023/03/17 02:10:10;;;;;;;4.90;4.50;;;7.70;46.10;;;;;;21118;6651;272868;-74
2023/03/17 02:12:35;;;;;;;5.23;4.73;;;7.90;45.80;;;;;;21306;6651;70620;-74
2023/03/17 02:15:02;;;;;;;5.20;4.80;;;8.20;45.10;;;;;;21121;6651;305519;-74
2023/03/17 02:17:29;;;;;;;5.40;5.00;;;8.20;45.10;;;;;;21147;6636;306338;-74
2023/03/17 02:19:55;;;;;;;5.13;4.73;;;8.80;44.00;;;;;;21160;6636;308350;-75
2023/03/17 02:22:20;;;;;;;4.75;4.45;;;8.80;44.00;;;;;;21097;6651;326736;-74
2023/03/17 02:24:46;;;;;;;4.78;4.47;;;9.00;43.90;;;;;;21141;6642;311974;-74
2023/03/17 02:27:15;;;;;;;5.25;4.85;;;9.20;43.40;;;;;;21379;6636;66271;-74
2023/03/17 02:29:41;;;;;;;5.05;4.65;;;8.90;44.20;;;;;;21112;6651;271943;-74
2023/03/17 02:32:08;;;;;;;5.17;4.80;;;8.90;43.70;;;;;;21393;6633;66174;-74
2023/03/17 02:34:32;;;;;;;5.67;4.17;;;8.70;44.00;;;;;;21334;6651;66991;-74
2023/03/17 02:36:58;;;;;;;5.07;4.57;;;8.40;44.60;;;;;;21121;6651;273519;-75
2023/03/17 02:39:23;;;;;;;4.83;4.53;;;8.40;44.60;;;;;;21109;6651;301432;-74
2023/03/17 02:41:49;;;;;;;4.07;3.87;;;8.70;44.40;;;;;;21287;6653;66755;-75
2023/03/17 02:44:15;;;;;;;4.13;3.83;;;8.60;44.40;;;;;;21379;6634;66441;-75
2023/03/17 02:46:40;;;;;;;4.40;4.10;;;8.30;44.80;;;;;;21330;6651;67154;-75
2023/03/17 02:49:06;;;;;;;4.45;4.12;;;8.00;45.10;;;;;;21107;6653;311237;-75
2023/03/17 02:51:31;;;;;;;4.40;4.20;;;8.10;45.20;;;;;;21407;6624;77399;-75
2023/03/17 02:53:57;;;;;;;4.73;4.37;;;8.10;45.30;;;;;;21112;6651;303700;-75
2023/03/17 02:56:22;;;;;;;4.80;4.50;;;8.30;45.00;;;;;;21094;6651;272815;-75
2023/03/17 02:58:49;;;;;;;4.60;4.30;;;8.50;44.40;;;;;;21371;6636;66704;-75
2023/03/17 03:01:15;;;;;;;4.70;4.40;;;8.50;44.40;;;;;;21374;6636;66647;-74
2023/03/17 03:03:40;;;;;;;5.37;5.07;;;8.20;44.90;;;;;;21060;6636;274247;-74
2023/03/17 03:06:06;;;;;;;5.00;4.70;;;8.30;45.10;;;;;;21129;6636;272727;-75
2023/03/17 03:08:31;;;;;;;4.20;4.00;;;8.60;44.30;;;;;;21167;6636;279705;-75
2023/03/17 03:10:59;;;;;;;4.33;4.03;;;8.80;43.50;;;;;;21073;6651;303701;-74
2023/03/17 03:13:22;;;;;;;5.30;4.80;;;9.00;43.60;;;;;;21309;6651;67568;-74
2023/03/17 03:15:48;;;;;;;4.57;4.22;;;8.80;43.90;;;;;;21122;6651;306384;-77
2023/03/17 03:18:14;;;;;;;4.55;4.25;;;8.70;44.10;;;;;;21359;6642;68094;-75
2023/03/17 03:20:39;;;;;;;4.53;4.22;;;8.50;44.40;;;;;;21159;6636;301283;-74
2023/03/17 03:23:05;;;;;;;4.32;4.03;;;8.50;44.60;;;;;;21316;6653;67357;-75
2023/03/17 03:25:31;;;;;;;5.20;4.70;;;8.40;44.90;;;;;;21160;6634;304930;-74
2023/03/17 03:27:56;;;;;;;4.43;4.13;;;8.50;44.90;;;;;;21331;6651;66294;-74
2023/03/17 03:30:21;;;;;;;4.30;4.10;;;8.30;45.00;;;;;;21358;6642;67624;-74
2023/03/17 03:32:47;;;;;;;5.20;4.80;;;8.00;45.40;;;;;;21144;6636;300850;-74
2023/03/17 03:35:12;;;;;;;5.03;4.72;;;8.10;45.50;;;;;;21116;6653;275240;-74
2023/03/17 03:37:38;;;;;;;5.07;4.67;;;8.30;45.20;;;;;;21165;6634;294749;-75
2023/03/17 03:40:06;;;;;;;5.45;3.95;;;8.50;45.00;;;;;;21383;6634;66601;-77
2023/03/17 03:42:29;;;;;;;4.70;4.40;;;8.30;45.20;;;;;;21098;6649;277446;-75
2023/03/17 03:44:55;;;;;;;5.30;4.90;;;8.30;45.40;;;;;;21120;6651;331473;-75
2023/03/17 03:47:20;;;;;;;4.07;3.87;;;8.40;44.70;;;;;;21323;6651;66577;-74
2023/03/17 03:49:46;;;;;;;4.80;4.40;;;8.30;45.00;;;;;;21362;6642;74068;-74
2023/03/17 03:52:12;;;;;;;4.15;3.95;;;7.60;46.00;;;;;;21375;6636;66266;-74
2023/03/17 03:54:38;;;;;;;5.13;4.73;;;7.60;46.10;;;;;;21113;6651;309367;-74
2023/03/17 03:57:03;;;;;;;4.60;4.30;;;7.60;46.00;;;;;;21155;6640;300960;-74
2023/03/17 03:59:29;;;;;;;4.50;4.20;;;8.00;45.70;;;;;;21420;6624;68872;-74
2023/03/17 04:01:55;;;;;;;5.00;4.60;;;7.90;44.70;;;;;;21190;6625;300438;-76
2023/03/17 04:04:21;;;;;;;4.50;4.30;;;7.90;44.60;;;;;;21424;6625;66117;-74
2023/03/17 04:06:47;;;;;;;4.45;4.07;;;7.60;46.00;;;;;;21327;6651;71006;-74
2023/03/17 04:09:13;;;;;;;4.57;4.30;;;7.60;45.40;;;;;;21360;6642;66757;-74
2023/03/17 04:11:39;;;;;;;4.27;4.07;;;7.20;46.20;;;;;;21364;6636;67137;-76
2023/03/17 04:14:06;;;;;;;4.23;3.93;;;7.20;46.20;;;;;;21365;6638;70924;-75
2023/03/17 04:16:31;;;;;;;4.27;3.87;;;7.10;46.60;;;;;;21395;6634;67145;-76
2023/03/17 04:18:57;;;;;;;4.72;4.40;;;6.90;46.80;;;;;;21114;6651;302341;-74
2023/03/17 04:21:22;;;;;;;5.20;4.80;;;7.10;46.50;;;;;;21104;6651;303035;-77
2023/03/17 04:23:48;;;;;;;4.67;4.20;;;7.50;46.10;;;;;;21328;6651;67340;-75
2023/03/17 04:26:14;;;;;;;4.72;4.43;;;7.50;46.00;;;;;;21112;6651;302806;-74
2023/03/17 04:28:39;;;;;;;4.83;4.53;;;7.60;45.70;;;;;;21117;6651;279174;-74
2023/03/17 04:31:06;;;;;;;4.40;4.00;;;7.80;45.40;;;;;;21336;6651;68563;-74
2023/03/17 04:33:30;;;;;;;4.67;4.10;;;7.70;45.70;;;;;;21362;6642;66964;-74
2023/03/17 04:35:56;;;;;;;4.57;4.28;;;7.40;46.20;;;;;;21329;6651;67186;-74
2023/03/17 04:38:22;;;;;;;4.83;4.40;;;7.20;46.30;;;;;;21133;6642;330108;-73
2023/03/17 04:40:48;;;;;;;5.00;4.60;;;7.20;46.90;;;;;;21164;6636;275473;-77
2023/03/17 04:43:13;;;;;;;5.30;4.80;;;7.50;46.50;;;;;;21104;6651;273714;-74
2023/03/17 04:45:39;;;;;;;4.43;4.10;;;7.70;46.00;;;;;;21375;6642;66668;-74
2023/03/17 04:48:05;;;;;;;4.87;4.47;;;7.50;46.10;;;;;;21154;6636;274166;-74
2023/03/17 04:50:31;;;;;;;5.00;4.60;;;7.50;46.10;;;;;;21125;6653;302765;-75
2023/03/17 04:52:56;;;;;;;4.70;4.40;;;7.70;45.80;;;;;;21160;6632;308120;-75
2023/03/17 04:55:22;;;;;;;4.70;4.28;;;7.90;45.60;;;;;;21391;6633;68841;-74
2023/03/17 04:57:47;;;;;;;4.30;4.07;;;7.60;45.70;;;;;;21340;6651;67252;-75
2023/03/17 05:00:14;;;;;;;5.27;4.67;;;7.30;47.20;;;;;;21329;6651;66766;-76
2023/03/17 05:02:39;;;;;;;5.57;5.10;;;7.00;47.30;;;;;;21110;6651;301525;-76
2023/03/17 05:05:05;;;;;;;5.23;4.87;;;7.00;46.80;;;;;;21338;6651;66765;-74
2023/03/17 05:07:31;;;;;;;5.57;5.17;;;7.00;46.80;;;;;;21127;6642;305830;-75
2023/03/17 05:09:56;;;;;;;5.70;5.30;;;7.10;46.90;;;;;;21163;6636;284419;-74
2023/03/17 05:12:22;;;;;;;5.22;4.82;;;7.40;46.30;;;;;;21327;6651;66836;-74
2023/03/17 05:14:47;;;;;;;5.70;5.30;;;7.30;46.30;;;;;;21123;6651;305501;-74
2023/03/17 05:17:13;;;;;;;5.33;4.90;;;7.30;46.10;;;;;;21359;6642;67033;-76
2023/03/17 05:19:39;;;;;;;6.00;5.53;;;7.20;47.00;;;;;;21162;6636;300563;-75
2023/03/17 05:22:06;;;;;;;5.10;4.60;;;7.10;46.30;;;;;;21318;6653;66429;-75
2023/03/17 05:24:32;;;;;;;5.85;5.45;;;7.10;46.20;;;;;;21170;6634;272167;-79
2023/03/17 05:26:57;;;;;;;5.40;5.07;;;7.10;46.20;;;;;;21118;6651;285204;-75
2023/03/17 05:29:24;;;;;;;4.80;4.50;;;7.40;45.90;;;;;;21358;6642;66725;-76
2023/03/17 05:31:51;;;;;;;5.10;4.68;;;7.20;45.70;;;;;;21166;6636;301431;-75
2023/03/17 05:34:16;;;;;;;4.47;4.07;;;7.20;45.70;;;;;;21341;6651;66738;-75
2023/03/17 05:36:42;;;;;;;4.37;4.07;;;7.00;45.80;;;;;;21336;6651;67721;-75
2023/03/17 05:39:09;;;;;;;4.07;3.77;;;6.80;46.20;;;;;;21337;6651;70095;-74
2023/03/17 05:41:35;;;;;;;4.37;4.07;;;6.50;46.60;;;;;;21129;6642;329983;-75
2023/03/17 05:44:00;;;;;;;4.57;4.28;;;6.60;45.60;;;;;;21165;6636;277316;-78
2023/03/17 05:46:26;;;;;;;4.60;4.30;;;6.90;44.90;;;;;;21122;6651;327906;-75
2023/03/17 05:48:51;;;;;;;4.20;3.90;;;7.20;44.30;;;;;;21120;6651;285502;-76
2023/03/17 05:51:16;;;;;;;4.20;3.90;;;7.40;43.70;;;;;;21155;6636;301577;-73
2023/03/17 05:53:43;;;;;;;4.13;3.77;;;7.70;42.60;;;;;;21121;6651;305653;-76
2023/03/17 05:56:08;;;;;;;3.97;3.67;;;7.70;42.60;;;;;;21335;6651;66292;-74
2023/03/17 05:58:34;;;;;;;3.87;3.58;;;7.60;43.20;;;;;;21118;6651;271880;-80
2023/03/17 06:01:00;;;;;;;3.83;3.53;;;7.90;42.60;;;;;;21091;6653;330582;-74
2023/03/17 06:03:27;;;;;;;3.73;3.43;;;7.90;42.60;;;;;;21372;6632;67200;-79
2023/03/17 06:05:53;;;;;;;3.97;3.67;;;7.80;43.20;;;;;;21327;6650;71568;-75
2023/03/17 06:08:18;;;;;;;4.50;4.20;;;7.60;43.90;;;;;;21103;6651;301985;-75
2023/03/17 06:10:44;;;;;;;4.30;4.00;;;7.60;43.70;;;;;;21100;6651;292059;-76
2023/03/17 06:13:10;;;;;;;4.13;3.83;;;7.90;43.80;;;;;;21102;6653;302016;-75
2023/03/17 06:15:35;;;;;;;4.70;4.20;;;8.20;43.60;;;;;;21182;6634;300422;-75
2023/03/17 06:18:00;;;;;;;3.83;3.50;;;8.40;43.00;;;;;;21322;6651;68797;-75
2023/03/17 06:20:27;;;;;;;4.27;3.93;;;8.00;44.00;;;;;;21337;6651;66291;-74
2023/03/17 06:22:52;;;;;;;3.20;3.00;;;8.00;44.00;;;;;;21329;6651;68858;-74
2023/03/17 06:25:18;;;;;;;4.00;3.70;;;7.70;44.60;;;;;;21340;6651;67659;-75
2023/03/17 06:27:45;;;;;;;5.07;4.55;;;7.50;45.20;;;;;;21140;6642;285758;-74
2023/03/17 06:30:11;;;;;;;4.50;4.10;;;7.70;45.10;;;;;;21346;6636;66630;-75
2023/03/17 06:32:36;;;;;;;4.80;4.50;;;7.70;45.00;;;;;;21073;6653;300707;-74
2023/03/17 06:35:04;;;;;;;4.87;4.50;;;7.80;44.50;;;;;;21158;6634;306817;-77
2023/03/17 06:37:28;;;;;;;4.72;4.32;;;8.10;44.10;;;;;;21102;6651;280003;-75
2023/03/17 06:39:54;;;;;;;4.63;4.33;;;8.40;43.80;;;;;;21140;6642;327753;-75
2023/03/17 06:42:19;;;;;;;4.80;4.50;;;8.40;43.80;;;;;;21146;6636;272304;-75
2023/03/17 06:44:45;;;;;;;4.53;4.22;;;8.60;43.60;;;;;;21107;6653;276425;-76
2023/03/17 06:47:13;;;;;;;3.95;3.75;;;8.80;43.70;;;;;;21378;6634;67154;-75
2023/03/17 06:49:38;;;;;;;4.80;4.40;;;8.70;44.20;;;;;;21124;6651;301079;-76
2023/03/17 06:52:04;;;;;;;4.10;3.90;;;8.80;45.00;;;;;;21349;6642;88682;-75
2023/03/17 06:54:30;;;;;;;4.87;4.47;;;8.80;44.30;;;;;;21156;6636;301264;-75
2023/03/17 06:56:56;;;;;;;4.27;3.97;;;9.10;44.50;;;;;;21331;6653;67021;-77
2023/03/17 06:59:26;;;;;;;4.87;4.40;;;9.40;43.70;;;;;;21158;6634;302999;-83
2023/03/17 07:01:51;;;;;;;4.83;3.80;;;9.40;43.70;;;;;;21327;6651;70511;-75
2023/03/17 07:04:17;;;;;;;4.20;3.97;;;9.50;44.00;;;;;;21329;6651;66963;-74
2023/03/17 07:06:43;;;;;;;3.70;3.50;;;9.50;44.50;;;;;;21330;6651;67174;-75
2023/03/17 07:09:08;;;;;;;4.93;4.53;;;9.50;45.00;;;;;;21116;6651;306303;-75
2023/03/17 07:11:34;;;;;;;4.40;4.10;;;10.30;42.10;;;;;;21139;6642;300935;-74
2023/03/17 07:14:00;;;;;;;4.10;3.90;;;10.30;42.00;;;;;;21381;6636;67309;-73
2023/03/17 07:16:26;;;;;;;4.30;4.00;;;10.30;43.00;;;;;;21317;6649;70972;-73
2023/03/17 07:18:52;;;;;;;4.60;4.30;;;10.30;42.50;;;;;;21141;6640;306012;-73
2023/03/17 07:21:17;;;;;;;4.30;4.00;;;10.50;40.80;;;;;;21406;6623;66960;-73
2023/03/17 07:23:43;;;;;;;5.10;4.70;;;10.50;41.20;;;;;;21193;6624;300356;-73
2023/03/17 07:26:08;;;;;;;4.82;4.43;;;10.60;40.50;;;;;;21336;6651;67571;-73
2023/03/17 07:28:34;;;;;;;4.73;4.37;;;10.60;41.10;;;;;;21111;6651;274770;-73
2023/03/17 07:31:01;;;;;;;5.70;4.53;;;10.70;40.90;;;;;;21332;6651;69526;-73
2023/03/17 07:33:25;;;;;;;4.82;4.43;;;10.70;41.50;;;;;;21098;6651;273470;-74
2023/03/17 07:35:52;;;;;;;5.30;4.87;;;11.10;40.50;;;;;;21142;6642;300392;-74
2023/03/17 07:38:17;;;;;;;5.40;4.90;;;11.10;40.50;;;;;;21135;6636;300914;-74
2023/03/17 07:40:43;;;;;;;4.25;4.05;;;11.40;40.80;;;;;;21322;6653;66264;-72
2023/03/17 07:43:09;;;;;;;7.27;4.50;;;11.40;40.80;;;;;;21364;6634;67716;-74
2023/03/17 07:45:35;;;;;;;4.93;4.63;;;11.40;40.80;;;;;;21113;6651;300653;-74
2023/03/17 07:48:04;;;;;;;5.23;4.80;;;11.40;40.70;;;;;;21115;6653;301997;-73
2023/03/17 07:50:30;;;;;;;5.40;5.00;;;11.70;40.10;;;;;;21165;6634;302712;-73
2023/03/17 07:52:55;;;;;;;5.20;4.80;;;11.90;39.10;;;;;;21112;6651;302648;-73
2023/03/17 07:55:21;;;;;;;4.60;4.20;;;12.20;39.10;;;;;;21338;6651;66305;-72
2023/03/17 07:57:46;;;;;;;4.53;4.10;;;12.10;39.60;;;;;;21327;6651;67625;-73
2023/03/17 08:00:12;;;;;;;4.77;4.43;;;11.90;40.20;;;;;;21331;6651;66793;-74
2023/03/17 08:02:38;;;;;;;5.10;4.70;;;11.70;40.50;;;;;;21098;6653;334355;-73
2023/03/17 08:05:04;;;;;;;4.57;4.17;;;11.80;39.20;;;;;;21395;6634;67009;-73
2023/03/17 08:07:30;;;;;;;4.60;4.30;;;11.80;39.80;;;;;;21106;6651;330159;-76
2023/03/17 08:09:57;;;;;;;4.47;4.17;;;11.80;38.90;;;;;;21336;6651;67183;-76
2023/03/17 08:12:23;;;;;;;4.80;4.40;;;11.90;39.60;;;;;;21114;6651;300717;-73
2023/03/17 08:14:52;;;;;;;4.53;3.83;;;12.00;39.10;;;;;;21328;6651;66668;-79
2023/03/17 08:17:17;;;;;;;5.63;3.93;;;12.00;39.70;;;;;;21332;6651;66788;-74
2023/03/17 08:19:43;;;;;;;4.05;3.65;;;11.90;40.20;;;;;;21331;6651;66783;-74
2023/03/17 08:22:09;;;;;;;4.53;4.22;;;11.90;40.80;;;;;;21108;6651;311272;-74
2023/03/17 08:24:35;;;;;;;4.47;4.17;;;12.50;38.80;;;;;;21126;6642;300173;-75
2023/03/17 08:27:00;;;;;;;4.10;3.80;;;12.50;38.80;;;;;;21356;6635;67119;-74
2023/03/17 08:29:27;;;;;;;3.90;3.58;;;12.60;39.40;;;;;;21331;6652;66643;-74
2023/03/17 08:31:52;;;;;;;3.92;3.60;;;12.60;39.90;;;;;;21375;6633;70284;-74
2023/03/17 08:34:17;;;;;;;3.85;3.55;;;12.50;40.40;;;;;;21343;6651;67271;-74
2023/03/17 08:36:43;;;;;;;5.10;3.90;;;12.50;40.70;;;;;;21337;6651;66411;-74
2023/03/17 08:39:09;;;;;;;4.43;4.10;;;12.50;40.80;;;;;;21138;6642;304582;-74
2023/03/17 08:41:35;;;;;;;4.13;3.83;;;12.70;38.50;;;;;;21151;6636;276710;-74
2023/03/17 08:43:59;;;;;;;4.53;4.13;;;13.10;37.60;;;;;;21113;6651;276235;-74
2023/03/17 08:46:25;;;;;;;6.87;3.80;;;13.50;36.30;;;;;;21339;6651;78438;-76
2023/03/17 08:48:51;;;;;;;3.80;3.50;;;13.50;37.30;;;;;;21324;6651;66299;-74
2023/03/17 08:51:16;;;;;;;4.35;4.00;;;13.30;38.10;;;;;;21101;6651;301880;-76
2023/03/17 08:53:42;;;;;;;4.47;3.72;;;13.30;36.20;;;;;;21115;6651;291678;-75
2023/03/17 08:56:08;;;;;;;4.40;4.10;;;13.80;36.60;;;;;;21113;6651;282178;-74
2023/03/17 08:58:34;;;;;;;3.57;3.37;;;13.80;36.60;;;;;;21336;6651;66872;-74
2023/03/17 09:00:59;;;;;;;4.00;3.70;;;13.80;37.30;;;;;;21106;6651;310289;-74
2023/03/17 09:03:25;;;;;;;4.10;3.70;;;13.90;36.10;;;;;;21333;6651;67030;-74
2023/03/17 09:05:50;;;;;;;4.93;4.30;;;14.00;37.10;;;;;;21119;6651;330210;-74
2023/03/17 09:08:17;;;;;;;3.90;3.60;;;14.10;36.40;;;;;;21159;6636;272161;-74
2023/03/17 09:10:43;;;;;;;3.93;3.27;;;14.50;36.10;;;;;;21344;6651;70920;-74
2023/03/17 09:13:09;;;;;;;3.62;3.42;;;14.70;36.70;;;;;;21356;6638;78507;-74
2023/03/17 09:15:34;;;;;;;5.63;3.40;;;14.60;37.20;;;;;;21343;6651;66825;-74
2023/03/17 09:18:00;;;;;;;3.70;3.50;;;14.50;37.40;;;;;;21107;6651;301360;-74
2023/03/17 09:20:25;;;;;;;4.73;4.10;;;14.70;35.70;;;;;;21331;6651;66345;-74
2023/03/17 09:22:51;;;;;;;5.80;3.40;;;14.80;36.50;;;;;;21327;6651;89168;-74
2023/03/17 09:25:16;;;;;;;3.63;3.43;;;14.80;37.20;;;;;;21099;6651;305997;-74
2023/03/17 09:27:42;;;;;;;3.30;3.10;;;15.10;36.10;;;;;;21333;6651;66854;-74
2023/03/17 09:30:09;;;;;;;3.27;2.80;;;15.40;36.90;;;;;;21327;6651;68706;-74
2023/03/17 09:32:33;;;;;;;3.57;3.20;;;15.50;37.40;;;;;;21093;6653;306010;-74
2023/03/17 09:34:59;;;;;;;3.70;3.37;;;15.80;34.80;;;;;;21394;6634;66615;-75
2023/03/17 09:37:25;;;;;;;3.92;3.55;;;15.90;35.40;;;;;;21330;6651;73169;-74
2023/03/17 09:39:50;;;;;;;5.60;3.60;;;15.90;36.00;;;;;;21146;6640;301195;-74
2023/03/17 09:42:25;;;;;;;5.30;3.72;;;16.00;34.50;;;;;;21152;6636;300492;-76
2023/03/17 09:45:00;;;;;;;8.77;3.17;;;16.40;33.50;;;;;;20609;6653;66366;-74
2023/03/17 09:47:32;;;;;;;4.80;3.50;;;16.40;34.60;;;;;;21388;6634;67091;-75
2023/03/17 09:49:57;;;;;;;5.55;3.78;;;16.20;35.30;;;;;;21175;6634;271503;-73
2023/03/17 09:52:24;;;;;;;4.07;3.10;;;16.70;35.80;;;;;;21320;6651;66441;-73
2023/03/17 09:54:49;;;;;;;3.50;3.20;;;16.70;35.00;;;;;;21323;6651;67325;-73
2023/03/17 09:57:18;;;;;;;3.50;3.20;;;16.70;35.50;;;;;;21336;6651;66856;-73
2023/03/17 09:59:45;;;;;;;4.33;3.10;;;16.60;36.10;;;;;;21339;6651;67959;-74
2023/03/17 10:02:22;;;;;;;3.70;3.07;;;16.60;36.50;;;;;;21317;6651;66321;-74
2023/03/17 10:04:48;;;;;;;3.60;3.00;;;16.60;36.60;;;;;;21313;6653;70813;-74
2023/03/17 10:07:15;;;;;;;3.78;3.47;;;16.60;37.10;;;;;;21380;6634;66606;-74
2023/03/17 10:09:50;;;;;;;6.40;3.43;;;16.60;36.50;;;;;;21310;6651;67273;-74
2023/03/17 10:12:19;;;;;;;3.20;3.00;;;16.60;37.00;;;;;;21308;6651;66671;-74
2023/03/17 10:14:54;;;;;;;3.60;3.27;;;16.70;37.30;;;;;;21317;6651;67747;-74
2023/03/17 10:17:19;;;;;;;3.40;3.20;;;16.70;36.90;;;;;;21320;6653;67233;-74
2023/03/17 10:19:55;;;;;;;6.03;3.20;;;16.70;37.00;;;;;;21396;6624;69267;-74
2023/03/17 10:22:22;;;;;;;5.60;3.60;;;17.00;34.20;;;;;;21090;6651;272413;-74
2023/03/17 10:24:47;;;;;;;3.40;3.10;;;16.90;34.10;;;;;;21161;6631;302535;-74
2023/03/17 10:27:13;;;;;;;3.60;3.23;;;17.80;33.30;;;;;;21101;6651;330740;-74
2023/03/17 10:29:39;;;;;;;4.50;3.40;;;17.80;33.30;;;;;;21111;6651;301092;-73
2023/03/17 10:32:04;;;;;;;3.87;3.00;;;18.20;32.40;;;;;;21355;6640;66542;-73
2023/03/17 10:34:30;;;;;;;5.47;2.93;;;18.40;33.50;;;;;;21406;6624;67063;-73
2023/03/17 10:36:58;;;;;;;3.80;3.22;;;18.30;34.30;;;;;;21110;6651;302475;-73
2023/03/17 10:39:24;;;;;;;3.13;2.90;;;18.50;31.80;;;;;;21322;6651;69404;-76
2023/03/17 10:41:59;;;;;;;3.47;2.80;;;18.60;32.90;;;;;;21327;6651;66741;-73
2023/03/17 10:44:48;;;;;;;3.57;2.83;;;18.40;34.50;;;;;;21349;6638;71547;-73
2023/03/17 10:47:30;;;;;;;4.50;3.00;;;18.40;34.10;;;;;;21154;6634;271102;-72
2023/03/17 10:49:55;;;;;;;3.60;3.20;;;18.60;31.70;;;;;;21387;6632;67610;-76
2023/03/17 10:52:21;;;;;;;3.12;2.92;;;18.80;32.90;;;;;;21318;6650;67919;-75
2023/03/17 10:54:46;;;;;;;4.72;3.10;;;18.70;33.50;;;;;;21078;6653;272279;-72
2023/03/17 10:57:14;;;;;;;3.83;3.07;;;18.90;31.20;;;;;;21385;6636;65361;-72
2023/03/17 10:59:45;;;;;;;3.07;2.87;;;19.00;32.40;;;;;;21319;6653;67286;-75
2023/03/17 11:02:22;;;;;;;3.60;3.30;;;19.10;31.60;;;;;;21124;6634;299546;-75
2023/03/17 11:04:48;;;;;;;3.65;2.87;;;19.10;31.60;;;;;;21088;6651;293767;-73
2023/03/17 11:07:20;;;;;;;4.20;3.20;;;19.50;30.80;;;;;;21110;6651;303547;-75
2023/03/17 11:09:49;;;;;;;3.43;3.13;;;19.80;31.20;;;;;;21309;6651;65712;-74
2023/03/17 11:12:27;;;;;;;4.40;2.97;;;19.80;32.40;;;;;;21100;6651;329395;-73
2023/03/17 11:15:02;;;;;;;3.30;3.00;;;19.90;30.60;;;;;;21157;6638;281896;-73
2023/03/17 11:17:38;;;;;;;4.00;3.27;;;20.20;30.60;;;;;;21146;6634;299195;-74
2023/03/17 11:20:20;;;;;;;3.33;2.90;;;20.50;30.50;;;;;;21296;6651;66295;-74
2023/03/17 11:22:48;;;;;;;5.32;3.05;;;20.50;31.50;;;;;;21086;6651;330174;-74
2023/03/17 11:25:22;;;;;;;4.60;3.10;;;20.50;30.00;;;;;;21104;6651;284159;-74
2023/03/17 11:27:52;;;;;;;4.10;2.77;;;20.70;29.70;;;;;;21328;6651;66656;-74
2023/03/17 11:30:28;;;;;;;4.17;2.57;;;20.60;31.00;;;;;;21320;6651;71011;-73
2023/03/17 11:32:56;;;;;;;2.77;2.60;;;20.40;32.00;;;;;;21346;6638;66726;-74
2023/03/17 11:35:33;;;;;;;2.78;2.55;;;20.20;32.50;;;;;;21143;6634;301335;-74
2023/03/17 11:38:23;;;;;;;2.72;2.53;;;20.40;30.00;;;;;;21093;6651;301571;-77
2023/03/17 11:41:09;;;;;;;3.43;2.00;;;20.70;29.20;;;;;;21375;6636;66712;-76
2023/03/17 11:43:58;;;;;;;2.60;2.10;;;20.50;31.20;;;;;;21358;6636;66252;-76
2023/03/17 11:46:44;;;;;;;2.83;2.50;;;20.50;31.20;;;;;;21375;6636;66647;-75
2023/03/17 11:49:10;;;;;;;2.43;2.23;;;20.40;31.80;;;;;;21380;6636;65914;-79
2023/03/17 11:52:02;;;;;;;2.63;2.43;;;20.40;32.00;;;;;;21306;6651;66423;-75
2023/03/17 11:54:49;;;;;;;2.50;2.30;;;20.50;28.40;;;;;;21158;6636;276324;-77
2023/03/17 11:57:14;;;;;;;2.40;2.20;;;20.50;28.40;;;;;;21356;6636;66011;-73
2023/03/17 11:59:50;;;;;;;4.87;2.23;;;20.50;29.60;;;;;;21309;6651;66972;-72
2023/03/17 12:02:26;;;;;;;2.10;2.00;;;20.40;30.00;;;;;;21088;6649;276739;-75
2023/03/17 12:04:52;;;;;;;2.70;2.05;;;20.80;28.00;;;;;;21140;6636;333784;-75
2023/03/17 12:07:24;;;;;;;2.50;2.30;;;20.80;28.00;;;;;;21092;6651;301155;-75
2023/03/17 12:10:20;;;;;;;2.60;2.40;;;21.10;29.30;;;;;;21098;6651;272879;-72
2023/03/17 12:12:51;;;;;;;2.60;2.40;;;21.30;30.00;;;;;;21139;6638;300735;-75
2023/03/17 12:15:20;;;;;;;2.80;2.60;;;21.50;30.70;;;;;;21391;6634;66609;-74
2023/03/17 12:17:51;;;;;;;2.37;2.10;;;21.50;31.60;;;;;;21302;6651;66287;-75
2023/03/17 12:20:21;;;;;;;2.50;2.13;;;21.30;31.70;;;;;;21073;6653;272537;-77
2023/03/17 12:22:55;;;;;;;2.30;2.10;;;21.70;30.00;;;;;;21127;6634;271551;-78
2023/03/17 12:25:29;;;;;;;2.10;1.90;;;21.70;29.70;;;;;;21120;6651;301338;-78
2023/03/17 12:28:04;;;;;;;2.20;2.00;;;22.00;29.40;;;;;;21325;6651;67270;-76
2023/03/17 12:30:44;;;;;;;2.10;2.00;;;22.00;30.20;;;;;;21302;6651;66836;-73
2023/03/17 12:33:21;;;;;;;4.70;4.33;;;21.70;30.60;;;;;;21351;6638;67150;-77
2023/03/17 12:35:46;;;;;;;2.53;2.30;;;21.50;31.50;;;;;;21367;6634;66640;-77
2023/03/17 12:38:18;;;;;;;2.60;2.50;;;21.30;32.30;;;;;;21115;6651;309486;-73
2023/03/17 12:40:50;;;;;;;2.50;2.30;;;21.40;30.90;;;;;;21072;6654;276766;-73
2023/03/17 12:43:25;;;;;;;3.90;2.50;;;21.80;30.70;;;;;;21118;6636;300477;-78
2023/03/17 12:46:07;;;;;;;3.10;2.90;;;22.10;29.60;;;;;;21293;6651;69996;-77
2023/03/17 12:48:35;;;;;;;2.40;2.30;;;22.10;30.90;;;;;;21325;6653;70999;-76